TimeCDT,TemperatureF,Dew PointF,Humidity,Sea Level PressureIn,VisibilityMPH,Wind Direction,Wind SpeedMPH,Gust SpeedMPH,PrecipitationIn,Events,Conditions,WindDirDegrees,DateUTC
12:53 AM,37.0,32.0,82,30.15,10.0,Calm,Calm,-,N/A,,Clear,0,2013-03-28 05:53:00
1:53 AM,34.0,30.9,89,30.15,10.0,Calm,Calm,-,N/A,,Clear,0,2013-03-28 06:53:00
2:53 AM,33.1,30.0,89,30.15,10.0,Calm,Calm,-,N/A,,Clear,0,2013-03-28 07:53:00
3:53 AM,32.0,28.9,88,30.14,10.0,Calm,Calm,-,N/A,,Clear,0,2013-03-28 08:53:00
4:53 AM,30.9,28.9,92,30.14,10.0,Calm,Calm,-,N/A,,Clear,0,2013-03-28 09:53:00
5:53 AM,32.0,28.9,88,30.14,10.0,Calm,Calm,-,N/A,,Clear,0,2013-03-28 10:53:00
6:53 AM,30.0,28.0,92,30.15,10.0,Calm,Calm,-,N/A,,Clear,0,2013-03-28 11:53:00
7:53 AM,33.1,30.9,92,30.18,6.0,Calm,Calm,-,N/A,,Clear,0,2013-03-28 12:53:00
8:53 AM,45.0,34.0,65,30.18,9.0,Calm,Calm,-,N/A,,Clear,0,2013-03-28 13:53:00
9:53 AM,51.1,34.0,52,30.19,10.0,SSE,8.1,-,N/A,,Clear,160,2013-03-28 14:53:00
10:53 AM,57.9,37.9,47,30.19,10.0,South,8.1,-,N/A,,Clear,170,2013-03-28 15:53:00
11:53 AM,61.0,41.0,48,30.18,10.0,SE,6.9,-,N/A,,Clear,140,2013-03-28 16:53:00
12:53 PM,68.0,44.1,42,30.16,10.0,Variable,5.8,-,N/A,,Clear,0,2013-03-28 17:53:00
1:53 PM,66.9,45.0,45,30.14,10.0,SSW,4.6,-,N/A,,Clear,200,2013-03-28 18:53:00
2:53 PM,66.9,46.0,47,30.12,10.0,South,10.4,-,N/A,,Clear,180,2013-03-28 19:53:00
3:53 PM,69.1,48.0,47,30.09,10.0,SE,10.4,-,N/A,,Clear,140,2013-03-28 20:53:00
4:53 PM,72.0,48.9,44,30.06,10.0,SSE,10.4,-,N/A,,Clear,160,2013-03-28 21:53:00
5:53 PM,71.1,50.0,47,30.05,10.0,SE,9.2,-,N/A,,Clear,140,2013-03-28 22:53:00
6:53 PM,69.1,48.9,49,30.06,10.0,SSE,12.7,-,N/A,,Clear,160,2013-03-28 23:53:00
7:53 PM,66.9,48.9,52,30.08,10.0,SSE,6.9,-,N/A,,Overcast,150,2013-03-29 00:53:00
8:53 PM,64.9,50.0,58,30.09,10.0,South,6.9,-,N/A,,Mostly Cloudy,170,2013-03-29 01:53:00
9:53 PM,61.0,48.9,64,30.11,10.0,SSE,4.6,-,N/A,,Mostly Cloudy,160,2013-03-29 02:53:00
10:53 PM,57.0,48.9,74,30.11,10.0,Calm,Calm,-,N/A,,Overcast,0,2013-03-29 03:53:00
11:53 PM,57.9,48.9,72,30.11,10.0,South,4.6,-,N/A,,Mostly Cloudy,180,2013-03-29 04:53:00